createdAt,value
2019-03-31T00:00:05.839Z,9.50
2019-03-31T00:02:52.795Z,9.30
2019-03-31T00:05:46.283Z,9.20
2019-03-31T00:08:30.902Z,9.20
2019-03-31T00:11:15.724Z,9.20
2019-03-31T00:14:00.596Z,9.10
2019-03-31T00:16:46.059Z,9.10
2019-03-31T00:19:39.535Z,9.30
2019-03-31T00:22:24.272Z,9.60
2019-03-31T00:25:09.140Z,9.50
2019-03-31T00:27:53.891Z,9.30
2019-03-31T00:30:38.436Z,9.20
2019-03-31T00:33:23.287Z,9.00
2019-03-31T00:36:08.279Z,8.90
2019-03-31T00:38:53.183Z,8.90
2019-03-31T00:41:38.139Z,9.00
2019-03-31T00:44:22.564Z,9.10
2019-03-31T00:47:07.204Z,9.10
2019-03-31T00:49:51.546Z,9.00
2019-03-31T00:52:44.687Z,8.90
2019-03-31T00:55:29.178Z,8.80
2019-03-31T00:58:13.304Z,8.70
2019-03-31T01:01:16.947Z,8.50
2019-03-31T01:04:03.543Z,8.40
2019-03-31T01:06:47.883Z,8.40
2019-03-31T01:09:33.375Z,8.50
2019-03-31T01:12:28.143Z,8.50
2019-03-31T01:15:15.643Z,8.40
2019-03-31T01:18:10.335Z,8.40
2019-03-31T01:20:55.008Z,8.40
2019-03-31T01:23:48.363Z,8.30
2019-03-31T01:26:33.157Z,8.20
2019-03-31T01:29:17.541Z,8.10
2019-03-31T01:32:02.175Z,8.20
2019-03-31T01:34:47.328Z,8.20
2019-03-31T01:37:31.995Z,8.20
2019-03-31T01:40:16.320Z,8.10
2019-03-31T01:43:09.271Z,8.10
2019-03-31T01:45:53.908Z,8.10
2019-03-31T01:48:38.483Z,8.10
2019-03-31T01:51:31.743Z,8.10
2019-03-31T01:54:16.363Z,8.20
2019-03-31T01:57:00.885Z,8.20
2019-03-31T01:59:45.451Z,8.20
2019-03-31T02:02:38.580Z,8.10
2019-03-31T02:05:23.211Z,8.10
2019-03-31T02:08:08.028Z,8.00
2019-03-31T02:10:53.035Z,7.90
2019-03-31T02:13:37.673Z,7.80
2019-03-31T02:16:22.609Z,7.80
2019-03-31T02:19:07.103Z,7.90
2019-03-31T02:21:51.963Z,7.90
2019-03-31T02:24:36.867Z,7.90
2019-03-31T02:27:21.607Z,7.80
2019-03-31T02:30:06.700Z,7.80
2019-03-31T02:32:51.849Z,7.70
2019-03-31T02:35:36.991Z,7.60
2019-03-31T02:38:30.201Z,7.60
2019-03-31T02:41:15.304Z,7.50
2019-03-31T02:43:59.576Z,7.60
2019-03-31T02:46:44.411Z,7.90
2019-03-31T02:49:29.205Z,8.00
2019-03-31T02:52:14.101Z,8.10
2019-03-31T02:54:58.517Z,7.80
2019-03-31T02:57:51.507Z,7.50
2019-03-31T03:00:36.141Z,7.30
2019-03-31T03:03:20.865Z,7.20
2019-03-31T03:06:05.584Z,7.20
2019-03-31T03:08:50.339Z,7.20
2019-03-31T03:11:36.168Z,7.10
2019-03-31T03:14:29.711Z,7.10
2019-03-31T03:17:14.371Z,7.40
2019-03-31T03:19:59.363Z,7.60
2019-03-31T03:22:43.881Z,7.70
2019-03-31T03:25:28.293Z,7.60
2019-03-31T03:28:21.524Z,7.50
2019-03-31T03:31:14.702Z,7.40
2019-03-31T03:33:52.831Z,7.40
2019-03-31T03:36:37.361Z,7.40
2019-03-31T03:39:22.077Z,7.40
2019-03-31T03:42:06.420Z,7.40
2019-03-31T03:44:59.519Z,7.30
2019-03-31T03:47:44.245Z,7.20
2019-03-31T03:50:29.159Z,7.10
2019-03-31T03:53:13.883Z,6.90
2019-03-31T03:55:58.364Z,6.80
2019-03-31T03:58:42.677Z,6.70
2019-03-31T04:01:36.540Z,6.60
2019-03-31T04:04:21.288Z,6.40
2019-03-31T04:07:05.928Z,6.30
2019-03-31T04:09:50.672Z,6.30
2019-03-31T04:12:35.853Z,6.40
2019-03-31T04:15:20.602Z,6.40
2019-03-31T04:18:05.491Z,6.30
2019-03-31T04:20:50.081Z,6.20
2019-03-31T04:23:35.387Z,6.20
2019-03-31T04:26:28.689Z,6.30
2019-03-31T04:29:13.382Z,6.50
2019-03-31T04:31:58.436Z,6.50
2019-03-31T04:34:43.272Z,6.40
2019-03-31T04:37:28.212Z,6.30
2019-03-31T04:40:12.495Z,6.10
2019-03-31T04:42:57.048Z,5.90
2019-03-31T04:45:41.734Z,5.70
2019-03-31T04:48:34.987Z,5.70
2019-03-31T04:51:20.120Z,5.60
2019-03-31T04:54:04.834Z,6.00
2019-03-31T04:56:50.695Z,6.20
2019-03-31T04:59:35.855Z,6.50
2019-03-31T05:02:20.083Z,6.50
2019-03-31T05:05:04.383Z,6.50
2019-03-31T05:07:57.998Z,6.60
2019-03-31T05:10:43.084Z,6.60
2019-03-31T05:13:28.053Z,6.50
2019-03-31T05:16:22.099Z,6.50
2019-03-31T05:19:15.995Z,6.40
2019-03-31T05:22:00.989Z,6.60
2019-03-31T05:24:45.387Z,6.60
2019-03-31T05:27:30.264Z,6.50
2019-03-31T05:30:14.840Z,6.50
2019-03-31T05:32:59.398Z,6.40
2019-03-31T05:35:43.776Z,6.40
2019-03-31T05:38:36.750Z,6.20
2019-03-31T05:41:21.295Z,6.30
2019-03-31T05:44:14.199Z,6.20
2019-03-31T05:46:58.764Z,6.30
2019-03-31T05:49:43.727Z,6.20
2019-03-31T05:52:28.199Z,6.30
2019-03-31T05:55:21.684Z,6.30
2019-03-31T05:58:06.472Z,6.30
2019-03-31T06:00:51.093Z,6.40
2019-03-31T06:03:35.967Z,6.50
2019-03-31T06:06:20.759Z,6.50
2019-03-31T06:09:06.159Z,6.70
2019-03-31T06:11:59.956Z,6.80
2019-03-31T06:14:44.659Z,7.00
2019-03-31T06:17:29.332Z,7.10
2019-03-31T06:20:13.856Z,7.20
2019-03-31T06:22:58.489Z,7.50
2019-03-31T06:25:42.932Z,7.60
2019-03-31T06:28:27.383Z,7.70
2019-03-31T06:31:20.819Z,7.90
2019-03-31T06:34:05.416Z,8.00
2019-03-31T06:36:49.887Z,8.20
2019-03-31T06:39:34.487Z,8.40
2019-03-31T06:42:27.974Z,8.60
2019-03-31T06:45:12.447Z,8.80
2019-03-31T06:47:56.863Z,9.10
2019-03-31T06:50:41.765Z,9.20
2019-03-31T06:53:26.495Z,9.40
2019-03-31T06:56:11.335Z,9.40
2019-03-31T06:58:56.671Z,9.60
2019-03-31T07:01:41.526Z,9.70
2019-03-31T07:04:26.162Z,9.80
2019-03-31T07:07:10.632Z,9.90
2019-03-31T07:09:55.415Z,10.10
2019-03-31T07:12:39.968Z,10.20
2019-03-31T07:15:33.062Z,10.30
2019-03-31T07:18:17.901Z,10.40
2019-03-31T07:21:03.036Z,10.60
2019-03-31T07:23:47.648Z,10.70
2019-03-31T07:26:32.503Z,10.80
2019-03-31T07:29:17.511Z,10.90
2019-03-31T07:32:02.371Z,11.10
2019-03-31T07:34:47.115Z,11.20
2019-03-31T07:37:31.816Z,11.20
2019-03-31T07:40:16.680Z,11.40
2019-03-31T07:43:01.542Z,11.50
2019-03-31T07:45:46.147Z,11.60
2019-03-31T07:48:32.004Z,11.80
2019-03-31T07:51:17.099Z,12.00
2019-03-31T07:54:01.887Z,12.10
2019-03-31T07:56:47.003Z,12.20
2019-03-31T07:59:31.775Z,12.30
2019-03-31T08:02:16.984Z,12.40
2019-03-31T08:05:10.651Z,12.50
2019-03-31T08:07:55.474Z,12.70
2019-03-31T08:10:40.427Z,12.80
2019-03-31T08:13:25.316Z,12.90
2019-03-31T08:16:09.487Z,13.00
2019-03-31T08:18:54.024Z,13.10
2019-03-31T08:21:38.703Z,13.20
2019-03-31T08:24:43.187Z,13.40
2019-03-31T08:27:28.292Z,13.60
2019-03-31T08:30:13.238Z,13.70
2019-03-31T08:33:07.144Z,13.90
2019-03-31T08:35:51.603Z,13.90
2019-03-31T08:38:36.072Z,14.00
2019-03-31T08:41:21.532Z,14.10
2019-03-31T08:44:06.143Z,14.20
2019-03-31T08:46:51.227Z,14.30
2019-03-31T08:49:36.072Z,14.40
2019-03-31T08:52:20.839Z,14.60
2019-03-31T08:55:05.959Z,14.70
2019-03-31T08:58:01.672Z,14.90
2019-03-31T09:01:05.719Z,15.10
2019-03-31T09:03:50.112Z,15.30
2019-03-31T09:06:34.972Z,15.50
2019-03-31T09:09:19.195Z,15.70
2019-03-31T09:12:03.840Z,16.00
2019-03-31T09:14:56.855Z,16.30
2019-03-31T09:17:41.407Z,16.50
2019-03-31T09:20:26.111Z,16.70
2019-03-31T09:23:11.119Z,17.00
2019-03-31T09:25:55.883Z,17.20
2019-03-31T09:28:40.478Z,17.40
2019-03-31T09:31:25.448Z,17.60
2019-03-31T09:34:10.471Z,17.80
2019-03-31T09:36:55.043Z,18.10
2019-03-31T09:39:39.612Z,18.30
2019-03-31T09:42:32.859Z,18.60
2019-03-31T09:45:17.284Z,18.90
2019-03-31T09:48:02.103Z,19.10
2019-03-31T09:50:46.694Z,19.40
2019-03-31T09:53:31.347Z,19.60
2019-03-31T09:56:24.777Z,19.70
2019-03-31T09:59:09.544Z,20.00
2019-03-31T10:01:54.202Z,20.20
2019-03-31T10:04:38.843Z,20.40
2019-03-31T10:07:23.970Z,20.50
2019-03-31T10:10:09.274Z,20.70
2019-03-31T10:13:02.823Z,20.90
2019-03-31T10:15:47.323Z,21.10
2019-03-31T10:18:32.031Z,21.30
2019-03-31T10:21:17.012Z,21.60
2019-03-31T10:24:02.176Z,21.80
2019-03-31T10:26:46.567Z,21.90
2019-03-31T10:29:31.218Z,22.00
2019-03-31T10:32:15.867Z,22.10
2019-03-31T10:35:02.924Z,22.30
2019-03-31T10:37:46.176Z,22.40
2019-03-31T10:40:30.503Z,22.40
2019-03-31T10:43:15.194Z,22.70
2019-03-31T10:45:59.949Z,22.80
2019-03-31T10:48:44.247Z,22.90
2019-03-31T10:51:37.794Z,23.10
2019-03-31T10:54:22.328Z,23.30
2019-03-31T10:57:06.490Z,23.50
2019-03-31T11:00:20.269Z,23.70
2019-03-31T11:03:05.128Z,23.90
2019-03-31T11:05:49.506Z,24.00
2019-03-31T11:08:34.099Z,24.20
2019-03-31T11:11:18.739Z,24.30
2019-03-31T11:14:03.547Z,24.30
2019-03-31T11:16:48.091Z,24.60
2019-03-31T11:19:42.247Z,25.00
2019-03-31T11:25:39.126Z,25.60
2019-03-31T11:28:23.827Z,25.90
2019-03-31T11:31:08.824Z,26.10
2019-03-31T11:33:52.327Z,26.20
2019-03-31T11:36:44.788Z,26.30
2019-03-31T11:39:29.034Z,26.50
2019-03-31T11:42:23.217Z,26.80
2019-03-31T11:45:16.442Z,26.90
2019-03-31T11:48:01.078Z,27.10
2019-03-31T11:50:45.652Z,27.30
2019-03-31T11:53:30.067Z,27.60
2019-03-31T11:56:23.770Z,27.70
2019-03-31T11:59:08.376Z,27.80
2019-03-31T12:01:52.954Z,27.80
2019-03-31T12:04:37.982Z,27.80
2019-03-31T12:07:28.195Z,27.70
2019-03-31T12:10:08.687Z,27.70
2019-03-31T12:12:53.337Z,27.70
2019-03-31T12:15:46.718Z,27.80
2019-03-31T12:18:31.247Z,28.10
2019-03-31T12:21:15.800Z,28.20
2019-03-31T12:24:00.528Z,28.20
2019-03-31T12:26:44.923Z,28.30
2019-03-31T12:29:38.777Z,28.40
2019-03-31T12:32:32.734Z,28.30
2019-03-31T12:35:17.233Z,28.30
2019-03-31T12:38:02.244Z,28.50
2019-03-31T12:40:46.664Z,28.70
2019-03-31T12:43:31.454Z,28.60
2019-03-31T12:46:15.966Z,28.50
2019-03-31T12:49:00.575Z,28.30
2019-03-31T12:51:55.236Z,28.20
2019-03-31T12:54:39.828Z,28.20
2019-03-31T12:57:24.563Z,28.40
2019-03-31T13:00:09.220Z,28.50
2019-03-31T13:02:53.748Z,28.60
2019-03-31T13:05:47.351Z,28.60
2019-03-31T13:08:32.403Z,28.70
2019-03-31T13:11:28.147Z,28.80
2019-03-31T13:14:22.102Z,28.80
2019-03-31T13:17:06.736Z,28.80
2019-03-31T13:19:51.107Z,28.60
2019-03-31T13:22:35.718Z,28.00
2019-03-31T13:25:20.438Z,27.70
2019-03-31T13:28:05.856Z,28.00
2019-03-31T13:30:50.628Z,28.10
2019-03-31T13:33:34.999Z,28.10
2019-03-31T13:36:20.135Z,28.00
2019-03-31T13:39:05.895Z,28.20
2019-03-31T13:41:59.312Z,28.40
2019-03-31T13:44:51.375Z,28.60
2019-03-31T13:47:43.499Z,28.70
2019-03-31T13:50:28.502Z,28.80
2019-03-31T13:53:21.991Z,28.80
2019-03-31T13:56:07.652Z,29.00
2019-03-31T13:59:00.946Z,28.80
2019-03-31T14:01:45.567Z,28.80
2019-03-31T14:04:30.431Z,29.10
2019-03-31T14:07:14.888Z,29.40
2019-03-31T14:09:57.469Z,29.40
2019-03-31T14:12:51.095Z,29.30
2019-03-31T14:15:35.435Z,29.20
2019-03-31T14:18:20.605Z,29.20
2019-03-31T14:21:05.107Z,29.50
2019-03-31T14:23:49.760Z,29.60
2019-03-31T14:26:34.106Z,29.50
2019-03-31T14:29:27.527Z,29.10
2019-03-31T14:32:12.047Z,28.60
2019-03-31T14:34:56.423Z,28.10
2019-03-31T14:37:49.871Z,27.60
2019-03-31T14:40:34.764Z,26.80
2019-03-31T14:43:19.660Z,26.30
2019-03-31T14:46:04.472Z,26.00
2019-03-31T14:48:48.875Z,26.00
2019-03-31T14:51:33.406Z,25.90
2019-03-31T14:54:18.266Z,25.60
2019-03-31T14:57:02.707Z,25.40
2019-03-31T14:59:55.774Z,25.30
2019-03-31T15:02:40.428Z,25.60
2019-03-31T15:05:25.279Z,25.90
2019-03-31T15:08:09.924Z,26.20
2019-03-31T15:10:54.408Z,26.50
2019-03-31T15:13:50.312Z,26.30
2019-03-31T15:16:34.694Z,26.20
2019-03-31T15:19:19.287Z,25.90
2019-03-31T15:22:03.888Z,25.60
2019-03-31T15:25:17.313Z,25.40
2019-03-31T15:28:02.000Z,25.40
2019-03-31T15:30:46.364Z,25.50
2019-03-31T15:33:40.190Z,25.70
2019-03-31T15:36:35.971Z,25.90
2019-03-31T15:39:35.560Z,26.00
2019-03-31T15:42:20.083Z,26.00
2019-03-31T15:45:04.787Z,26.10
2019-03-31T15:47:49.359Z,26.10
2019-03-31T15:50:34.003Z,25.90
2019-03-31T15:53:18.907Z,25.70
2019-03-31T15:56:04.175Z,25.50
2019-03-31T15:58:48.767Z,25.20
2019-03-31T16:01:33.603Z,25.00
2019-03-31T16:04:18.180Z,24.70
2019-03-31T16:07:03.364Z,24.60
2019-03-31T16:09:47.699Z,24.30
2019-03-31T16:12:32.347Z,24.00
2019-03-31T16:15:16.423Z,23.60
2019-03-31T16:18:00.976Z,23.50
2019-03-31T16:20:45.135Z,23.20
2019-03-31T16:23:29.855Z,23.00
2019-03-31T16:26:23.027Z,22.70
2019-03-31T16:29:16.979Z,22.50
2019-03-31T16:32:11.465Z,22.40
2019-03-31T16:34:56.087Z,22.20
2019-03-31T16:37:40.523Z,22.10
2019-03-31T16:40:25.214Z,21.80
2019-03-31T16:43:10.181Z,21.60
2019-03-31T16:45:55.090Z,21.50
2019-03-31T16:48:39.440Z,21.30
2019-03-31T16:51:32.759Z,21.20
2019-03-31T16:54:16.839Z,20.90
2019-03-31T16:57:09.963Z,20.80
2019-03-31T16:59:54.793Z,20.70
2019-03-31T17:02:39.823Z,20.60
2019-03-31T17:05:24.404Z,20.50
2019-03-31T17:08:08.983Z,20.40
2019-03-31T17:10:53.311Z,20.40
2019-03-31T17:13:46.536Z,20.40
2019-03-31T17:16:31.251Z,20.30
2019-03-31T17:19:16.088Z,20.30
2019-03-31T17:22:00.860Z,20.20
2019-03-31T17:24:45.371Z,20.20
2019-03-31T17:27:30.031Z,20.10
2019-03-31T17:30:14.419Z,20.10
2019-03-31T17:33:08.130Z,20.10
2019-03-31T17:35:52.451Z,20.00
2019-03-31T17:38:36.945Z,20.10
2019-03-31T17:41:21.916Z,20.10
2019-03-31T17:44:06.159Z,20.00
2019-03-31T17:46:59.538Z,19.80
2019-03-31T17:49:44.826Z,19.70
2019-03-31T17:52:29.291Z,19.60
2019-03-31T17:55:13.823Z,19.50
2019-03-31T17:57:58.760Z,19.40
2019-03-31T18:00:43.503Z,19.50
2019-03-31T18:03:28.175Z,19.30
2019-03-31T18:06:12.959Z,19.20
2019-03-31T18:08:57.711Z,19.10
2019-03-31T18:11:42.387Z,19.00
2019-03-31T18:14:27.109Z,19.00
2019-03-31T18:17:11.948Z,18.90
2019-03-31T18:19:56.679Z,18.80
2019-03-31T18:22:49.620Z,18.80
2019-03-31T18:25:34.380Z,18.70
2019-03-31T18:28:28.996Z,18.70
2019-03-31T18:31:13.798Z,18.70
2019-03-31T18:33:58.699Z,18.70
2019-03-31T18:36:43.269Z,18.60
2019-03-31T18:39:27.923Z,18.50
2019-03-31T18:42:12.754Z,18.40
2019-03-31T18:44:58.039Z,18.40
2019-03-31T18:47:42.183Z,18.30
2019-03-31T18:50:26.662Z,18.10
2019-03-31T18:53:14.523Z,18.00
2019-03-31T18:56:37.747Z,17.90
2019-03-31T18:59:49.172Z,17.80
2019-03-31T19:03:12.803Z,17.80
2019-03-31T19:06:16.580Z,17.80
2019-03-31T19:09:20.093Z,17.80
2019-03-31T19:12:23.180Z,17.60
2019-03-31T19:15:26.792Z,17.60
2019-03-31T19:18:30.603Z,17.60
2019-03-31T19:25:13.023Z,17.40
2019-03-31T19:28:33.801Z,17.30
2019-03-31T19:31:37.172Z,17.20
2019-03-31T19:34:40.943Z,17.10
2019-03-31T19:38:01.468Z,17.10
2019-03-31T19:41:05.478Z,17.10
2019-03-31T19:43:57.791Z,16.80
2019-03-31T19:47:01.289Z,16.60
2019-03-31T19:50:11.767Z,16.30
2019-03-31T19:53:32.351Z,16.20
2019-03-31T19:56:26.868Z,16.00
2019-03-31T19:59:30.445Z,15.50
2019-03-31T20:02:36.850Z,15.20
2019-03-31T20:05:57.895Z,15.10
2019-03-31T20:09:01.331Z,15.30
2019-03-31T20:12:06.404Z,15.20
2019-03-31T20:15:30.327Z,15.00
2019-03-31T20:18:45.231Z,14.90
2019-03-31T20:22:05.889Z,14.80
2019-03-31T20:25:09.315Z,14.70
2019-03-31T20:28:16.140Z,14.60
2019-03-31T20:31:45.338Z,14.50
2019-03-31T20:34:38.760Z,14.50
2019-03-31T20:37:30.304Z,14.60
2019-03-31T20:40:43.318Z,14.80
2019-03-31T20:43:37.423Z,14.80
2019-03-31T20:46:46.447Z,14.90
2019-03-31T20:49:31.483Z,15.00
2019-03-31T20:52:16.112Z,14.90
2019-03-31T20:55:15.358Z,14.70
2019-03-31T20:57:47.387Z,14.50
2019-03-31T21:00:32.054Z,14.40
2019-03-31T21:03:16.754Z,14.40
2019-03-31T21:06:01.359Z,14.60
2019-03-31T21:08:45.799Z,14.50
2019-03-31T21:11:39.111Z,14.60
2019-03-31T21:14:23.680Z,14.70
2019-03-31T21:17:08.687Z,14.50
2019-03-31T21:19:52.839Z,14.10
2019-03-31T21:22:37.406Z,14.00
2019-03-31T21:25:30.858Z,14.00
2019-03-31T21:28:15.595Z,13.90
2019-03-31T21:31:00.302Z,13.90
2019-03-31T21:33:44.792Z,13.70
2019-03-31T21:36:29.615Z,13.50
2019-03-31T21:39:14.195Z,13.50
2019-03-31T21:41:58.703Z,13.60
2019-03-31T21:44:51.999Z,13.60
2019-03-31T21:47:36.773Z,13.60
2019-03-31T21:50:21.375Z,13.60
2019-03-31T21:53:05.803Z,13.60
2019-03-31T21:56:01.332Z,13.60
2019-03-31T21:58:54.521Z,13.50
2019-03-31T22:01:39.238Z,13.50
2019-03-31T22:04:23.692Z,13.20
2019-03-31T22:07:17.318Z,13.00
2019-03-31T22:10:02.049Z,12.70
2019-03-31T22:12:46.164Z,12.40
2019-03-31T22:15:30.679Z,12.30
2019-03-31T22:18:24.012Z,12.10
2019-03-31T22:21:08.902Z,12.20
2019-03-31T22:23:58.150Z,12.30
2019-03-31T22:26:38.007Z,12.40
2019-03-31T22:29:22.558Z,12.50
2019-03-31T22:32:07.052Z,12.50
2019-03-31T22:35:01.139Z,12.80
2019-03-31T22:37:45.735Z,13.00
2019-03-31T22:40:30.093Z,13.00
2019-03-31T22:43:14.684Z,13.10
2019-03-31T22:45:59.155Z,13.20
2019-03-31T22:48:52.739Z,13.30
2019-03-31T22:51:37.423Z,13.20
2019-03-31T22:54:21.995Z,13.10
2019-03-31T22:57:06.818Z,12.80
2019-03-31T22:59:51.519Z,12.50
2019-03-31T23:02:35.871Z,12.30
2019-03-31T23:05:29.607Z,12.10
2019-03-31T23:08:14.552Z,12.00
2019-03-31T23:11:08.374Z,12.00
2019-03-31T23:13:52.867Z,12.10
2019-03-31T23:16:37.699Z,12.00
2019-03-31T23:19:22.508Z,12.00
2019-03-31T23:22:07.166Z,12.00
2019-03-31T23:24:51.624Z,12.10
2019-03-31T23:27:36.103Z,12.10
2019-03-31T23:30:29.819Z,12.10
2019-03-31T23:33:14.594Z,12.00
2019-03-31T23:35:59.199Z,12.20
2019-03-31T23:38:43.515Z,12.30
2019-03-31T23:41:28.415Z,12.40
2019-03-31T23:44:12.890Z,12.50
2019-03-31T23:46:58.078Z,12.60
2019-03-31T23:49:43.092Z,12.70
2019-03-31T23:52:27.610Z,12.70
2019-03-31T23:55:12.168Z,12.80
2019-03-31T23:57:56.923Z,12.80
